Time;durP1;ratioP1;P1;durP2;ratioP2;P2;SDS_P1;SDS_P2;PMS_P1;PMS_P2;Temp;Humidity;BMP_temperature;BMP_pressure;BME280_temperature;BME280_humidity;BME280_pressure;Samples;Min_cycle;Max_cycle;Signal;HPM_P1;HPM_P2
2022/09/09 00:00:16;;;;;;;22.33;9.25;;;14.60;83.40;;;;;;4128872;28;20049;-83
2022/09/09 00:02:22;;;;;;;;;;;14.50;83.30;;;;;;4117630;28;20034;-82
2022/09/09 00:04:34;;;;;;;20.00;9.30;;;14.50;83.60;;;;;;4117133;28;19914;-83
2022/09/09 00:06:44;;;;;;;22.20;10.50;;;14.50;83.10;;;;;;4117090;28;20034;-83
2022/09/09 00:09:11;;;;;;;19.08;9.10;;;14.50;83.00;;;;;;4113740;28;20065;-83
2022/09/09 00:11:16;;;;;;;22.05;10.30;;;14.50;83.20;;;;;;4115440;28;20046;-83
2022/09/09 00:13:25;;;;;;;25.35;11.25;;;14.50;83.00;;;;;;4119496;28;20062;-83
2022/09/09 00:15:33;;;;;;;22.35;10.82;;;14.60;83.00;;;;;;4117489;28;20042;-83
2022/09/09 00:18:00;;;;;;;27.08;11.52;;;14.50;82.90;;;;;;4101345;28;20027;-84
2022/09/09 00:20:23;;;;;;;21.38;11.20;;;14.50;83.00;;;;;;4131787;28;20368;-83
2022/09/09 00:22:27;;;;;;;23.38;11.20;;;14.50;82.80;;;;;;4122718;28;20079;-83
2022/09/09 00:24:38;;;;;;;22.25;11.18;;;14.60;82.80;;;;;;4115584;28;20027;-84
2022/09/09 00:26:45;;;;;;;22.95;11.63;;;14.50;82.80;;;;;;4097407;28;20031;-83
2022/09/09 00:28:57;;;;;;;22.73;10.60;;;14.50;82.70;;;;;;4112155;28;20041;-83
2022/09/09 00:31:10;;;;;;;20.35;10.80;;;14.50;82.70;;;;;;4115266;28;20034;-83
2022/09/09 00:33:15;;;;;;;22.13;10.95;;;14.50;82.70;;;;;;4115698;28;20037;-83
2022/09/09 00:35:26;;;;;;;27.40;11.02;;;14.50;82.70;;;;;;4112456;28;20037;-83
2022/09/09 00:37:31;;;;;;;20.90;11.57;;;14.50;82.70;;;;;;4115188;28;20089;-84
2022/09/09 00:39:41;;;;;;;18.92;9.88;;;14.50;82.60;;;;;;4116239;28;20034;-82
2022/09/09 00:41:54;;;;;;;24.70;11.38;;;14.50;82.60;;;;;;4115886;28;20038;-83
2022/09/09 00:44:20;;;;;;;21.58;11.73;;;14.50;82.60;;;;;;4116128;28;20034;-82
2022/09/09 00:46:50;;;;;;;22.08;10.80;;;14.50;82.60;;;;;;4112366;28;20034;-82
2022/09/09 00:49:15;;;;;;;22.35;11.30;;;14.50;82.70;;;;;;4123692;28;20037;-82
2022/09/09 00:51:46;;;;;;;24.27;10.68;;;14.50;82.60;;;;;;4121241;28;20106;-82
2022/09/09 00:54:18;;;;;;;20.67;11.13;;;14.50;82.50;;;;;;4120731;28;20042;-82
2022/09/09 00:56:25;;;;;;;20.55;10.48;;;14.50;82.60;;;;;;4117995;28;20077;-83
2022/09/09 00:58:27;;;;;;;23.05;11.23;;;14.50;82.50;;;;;;4119173;28;20105;-82
2022/09/09 01:00:31;;;;;;;21.70;10.60;;;14.50;82.50;;;;;;4118485;28;20038;-82
2022/09/09 01:02:41;;;;;;;23.00;11.52;;;14.50;82.50;;;;;;4123206;28;20022;-83
2022/09/09 01:04:42;;;;;;;22.92;11.93;;;14.50;82.40;;;;;;4117523;28;20026;-83
2022/09/09 01:06:51;;;;;;;25.30;12.35;;;14.50;82.40;;;;;;4119660;28;20117;-82
2022/09/09 01:08:52;;;;;;;23.08;12.05;;;14.50;82.40;;;;;;4122035;28;20026;-83
2022/09/09 01:10:54;;;;;;;19.42;11.57;;;14.50;82.40;;;;;;4117061;28;20786;-82
2022/09/09 01:13:00;;;;;;;19.58;10.52;;;14.50;82.40;;;;;;4119032;28;20174;-83
2022/09/09 01:15:24;;;;;;;19.48;11.27;;;14.50;82.50;;;;;;4122837;28;20030;-83
2022/09/09 01:17:30;;;;;;;18.88;10.23;;;14.50;82.60;;;;;;4134579;28;20038;-83
2022/09/09 01:19:43;;;;;;;19.45;10.90;;;14.50;82.50;;;;;;4106551;28;20123;-83
2022/09/09 01:21:46;;;;;;;20.63;11.98;;;14.60;82.50;;;;;;4121452;28;20029;-82
2022/09/09 01:24:08;;;;;;;20.00;12.13;;;14.50;82.50;;;;;;4119979;28;20026;-84
2022/09/09 01:26:11;;;;;;;21.35;11.63;;;14.60;82.40;;;;;;4118775;28;20554;-83
2022/09/09 01:28:21;;;;;;;22.27;11.10;;;14.50;82.30;;;;;;4120182;28;20450;-82
2022/09/09 01:30:23;;;;;;;19.02;10.90;;;14.50;82.40;;;;;;4117721;28;20035;-82
2022/09/09 01:32:58;;;;;;;21.45;11.13;;;14.50;82.30;;;;;;4120550;28;20030;-82
2022/09/09 01:34:59;;;;;;;22.02;11.80;;;14.50;82.40;;;;;;4109986;28;20053;-83
2022/09/09 01:37:09;;;;;;;20.05;11.43;;;14.50;82.30;;;;;;4121210;28;20506;-83
2022/09/09 01:39:10;;;;;;;22.05;12.30;;;14.60;82.40;;;;;;4118305;28;20033;-82
2022/09/09 01:41:11;;;;;;;21.60;12.63;;;14.50;82.30;;;;;;4121881;28;20137;-83
2022/09/09 01:43:13;;;;;;;21.25;12.55;;;14.50;82.30;;;;;;4119599;28;20037;-83
2022/09/09 01:45:13;;;;;;;29.25;13.10;;;14.60;82.30;;;;;;4117996;28;20027;-82
2022/09/09 01:47:15;;;;;;;23.88;12.68;;;14.60;82.30;;;;;;4116544;28;20041;-83
2022/09/09 01:49:16;;;;;;;22.80;12.43;;;14.60;82.30;;;;;;4113780;28;20030;-82
2022/09/09 01:51:18;;;;;;;23.55;12.57;;;14.70;82.40;;;;;;4115186;28;20045;-82
2022/09/09 01:53:21;;;;;;;22.50;13.35;;;14.60;82.30;;;;;;4111833;28;20030;-83
2022/09/09 01:55:32;;;;;;;20.50;11.80;;;14.60;83.00;;;;;;4114956;28;20538;-83
2022/09/09 01:57:41;;;;;;;23.63;13.20;;;14.60;82.20;;;;;;4111690;28;20026;-83
2022/09/09 02:00:00;;;;;;;23.15;12.68;;;14.60;82.30;;;;;;4110343;28;20030;-83
2022/09/09 02:02:08;;;;;;;24.80;13.43;;;14.60;82.20;;;;;;4113619;28;20029;-83
2022/09/09 02:04:24;;;;;;;25.83;13.68;;;14.60;82.90;;;;;;4111826;28;20042;-83
2022/09/09 02:06:31;;;;;;;24.70;14.57;;;14.60;82.10;;;;;;4112927;28;20045;-83
2022/09/09 02:08:55;;;;;;;28.67;14.40;;;14.60;82.10;;;;;;4118832;28;20779;-82
2022/09/09 02:11:03;;;;;;;26.00;14.23;;;14.60;82.10;;;;;;4109407;28;22694;-83
2022/09/09 02:13:15;;;;;;;31.00;15.68;;;14.60;82.00;;;;;;4113641;28;20026;-83
2022/09/09 02:15:25;;;;;;;38.70;16.55;;;14.60;82.00;;;;;;4111480;28;20026;-83
2022/09/09 02:17:31;;;;;;;39.58;17.42;;;14.60;82.70;;;;;;4112378;28;20538;-83
2022/09/09 02:19:36;;;;;;;39.38;18.00;;;14.70;82.00;;;;;;4114107;28;20023;-83
2022/09/09 02:21:37;;;;;;;44.00;19.45;;;14.70;82.00;;;;;;4113137;28;20097;-82
2022/09/09 02:23:40;;;;;;;46.65;18.00;;;14.70;82.00;;;;;;4111833;28;20100;-83
2022/09/09 02:25:44;;;;;;;48.88;19.42;;;14.80;82.00;;;;;;4110740;28;20030;-83
2022/09/09 02:27:47;;;;;;;44.45;17.55;;;14.70;81.90;;;;;;4110365;28;20465;-83
2022/09/09 02:29:50;;;;;;;;;;;14.60;81.90;;;;;;4114755;28;20045;-82
2022/09/09 02:31:54;;;;;;;48.70;17.73;;;14.70;82.20;;;;;;4112053;28;19925;-83
2022/09/09 02:33:59;;;;;;;50.15;18.73;;;14.70;81.70;;;;;;4110249;28;20056;-83
2022/09/09 02:36:03;;;;;;;59.13;21.15;;;14.70;81.70;;;;;;4112734;28;20076;-83
2022/09/09 02:38:08;;;;;;;56.08;21.23;;;14.70;81.80;;;;;;4111843;28;20026;-83
2022/09/09 02:40:11;;;;;;;49.97;19.88;;;14.70;81.80;;;;;;4110612;28;20038;-83
2022/09/09 02:42:13;;;;;;;59.15;21.10;;;14.70;81.90;;;;;;4111669;28;21424;-83
2022/09/09 02:44:18;;;;;;;57.45;21.30;;;14.80;81.90;;;;;;4111759;28;20035;-83
2022/09/09 02:46:38;;;;;;;79.20;23.40;;;14.70;81.80;;;;;;4098080;28;20499;-83
2022/09/09 02:49:28;;;;;;;54.00;22.02;;;14.70;81.90;;;;;;4116138;28;20463;-83
2022/09/09 02:51:47;;;;;;;55.78;21.48;;;14.70;81.90;;;;;;4108943;28;20046;-83
2022/09/09 02:53:59;;;;;;;49.58;21.13;;;14.70;81.80;;;;;;4111754;28;20487;-83
2022/09/09 02:56:06;;;;;;;58.85;23.55;;;14.70;81.80;;;;;;4116549;28;20109;-83
2022/09/09 02:58:11;;;;;;;49.63;22.15;;;14.70;81.90;;;;;;4118624;28;20030;-83
2022/09/09 03:00:12;;;;;;;51.50;22.45;;;14.80;81.90;;;;;;4114231;28;20034;-83
2022/09/09 03:02:13;;;;;;;49.80;22.45;;;14.70;81.90;;;;;;4116445;28;20097;-83
2022/09/09 03:04:14;;;;;;;55.20;22.10;;;14.70;82.00;;;;;;4111296;28;20368;-83
2022/09/09 03:06:14;;;;;;;51.42;22.48;;;14.70;82.00;;;;;;4118253;28;20181;-83
2022/09/09 03:08:16;;;;;;;47.17;21.23;;;14.70;82.10;;;;;;4113681;28;20034;-83
2022/09/09 03:10:17;;;;;;;40.88;19.23;;;14.70;82.10;;;;;;4113065;28;20462;-83
2022/09/09 03:12:17;;;;;;;48.17;21.73;;;14.70;82.10;;;;;;4113280;28;20034;-82
2022/09/09 03:14:21;;;;;;;50.33;21.15;;;14.70;82.20;;;;;;4112616;28;20088;-82
2022/09/09 03:16:22;;;;;;;42.80;20.15;;;14.80;82.20;;;;;;4108176;28;20831;-83
2022/09/09 03:18:24;;;;;;;45.08;20.85;;;14.80;82.20;;;;;;4113658;28;20491;-82
2022/09/09 03:20:26;;;;;;;41.00;20.98;;;14.80;82.20;;;;;;4111305;28;20034;-83
2022/09/09 03:22:26;;;;;;;48.63;22.48;;;14.80;82.30;;;;;;4115360;28;20034;-83
2022/09/09 03:24:27;;;;;;;50.42;22.88;;;14.80;82.30;;;;;;4115174;28;20038;-83
2022/09/09 03:26:27;;;;;;;43.17;20.67;;;14.80;82.30;;;;;;4116507;28;20038;-83
2022/09/09 03:28:30;;;;;;;42.90;20.98;;;14.80;82.30;;;;;;4115198;28;21042;-83
2022/09/09 03:30:31;;;;;;;45.75;22.50;;;14.80;82.30;;;;;;4113200;28;21527;-83
2022/09/09 03:32:32;;;;;;;47.33;22.08;;;14.80;82.30;;;;;;4116669;28;20038;-83
2022/09/09 03:34:33;;;;;;;44.05;21.80;;;14.80;82.30;;;;;;4115126;28;20023;-83
2022/09/09 03:36:33;;;;;;;50.10;23.13;;;14.80;82.30;;;;;;4116940;28;20034;-83
2022/09/09 03:38:34;;;;;;;45.40;22.83;;;14.80;82.30;;;;;;4117573;28;20164;-83
2022/09/09 03:40:35;;;;;;;51.70;22.30;;;14.90;82.40;;;;;;4116839;28;20022;-84
2022/09/09 03:42:36;;;;;;;39.50;21.85;;;15.00;82.40;;;;;;4119244;28;20205;-83
2022/09/09 03:44:37;;;;;;;44.72;23.02;;;14.90;82.40;;;;;;4120348;28;20064;-83
2022/09/09 03:46:38;;;;;;;46.15;23.90;;;14.90;82.30;;;;;;4117950;28;20035;-83
2022/09/09 03:48:38;;;;;;;48.13;23.02;;;14.90;82.30;;;;;;4119351;28;20037;-83
2022/09/09 03:50:39;;;;;;;37.97;21.08;;;14.90;82.30;;;;;;4103612;28;20026;-83
2022/09/09 03:52:41;;;;;;;40.40;22.13;;;14.90;82.30;;;;;;4107677;28;20035;-83
2022/09/09 03:54:42;;;;;;;42.10;22.15;;;14.90;82.30;;;;;;4116963;28;20548;-83
2022/09/09 03:56:43;;;;;;;45.55;22.50;;;15.00;82.40;;;;;;4117522;28;20061;-84
2022/09/09 03:58:43;;;;;;;45.97;23.08;;;15.00;82.50;;;;;;4114640;28;20099;-83
2022/09/09 04:00:54;;;;;;;45.13;21.63;;;14.90;82.40;;;;;;4115776;28;20735;-84
2022/09/09 04:02:57;;;;;;;44.35;23.33;;;15.00;82.50;;;;;;4117122;28;20579;-83
2022/09/09 04:04:59;;;;;;;38.35;22.08;;;15.00;82.50;;;;;;4113273;28;20050;-83
2022/09/09 04:07:00;;;;;;;37.28;21.50;;;15.00;82.50;;;;;;4114496;28;20494;-82
2022/09/09 04:09:03;;;;;;;41.45;23.10;;;15.00;82.50;;;;;;4115581;28;20086;-84
2022/09/09 04:11:06;;;;;;;40.67;22.35;;;15.00;82.50;;;;;;4116097;28;20038;-82
2022/09/09 04:13:26;;;;;;;41.03;24.33;;;15.00;82.50;;;;;;4118870;28;20547;-83
2022/09/09 04:15:56;;;;;;;43.42;22.80;;;15.10;82.40;;;;;;4115475;28;22448;-83
2022/09/09 04:18:17;;;;;;;43.17;21.50;;;15.10;82.40;;;;;;4115232;28;20043;-83
2022/09/09 04:20:38;;;;;;;44.65;23.10;;;15.00;82.30;;;;;;4117022;28;20030;-83
2022/09/09 04:22:59;;;;;;;39.88;20.23;;;15.00;83.00;;;;;;4111726;28;20632;-83
2022/09/09 04:25:20;;;;;;;41.25;22.58;;;15.00;82.30;;;;;;4118266;28;20146;-83
2022/09/09 04:27:41;;;;;;;38.60;19.58;;;15.00;82.30;;;;;;4121087;28;20027;-84
2022/09/09 04:30:02;;;;;;;38.08;20.83;;;15.00;82.30;;;;;;4115127;28;20033;-83
2022/09/09 04:32:23;;;;;;;34.20;19.10;;;15.00;82.40;;;;;;4115876;28;20035;-83
2022/09/09 04:34:44;;;;;;;38.28;20.50;;;15.00;82.50;;;;;;4114043;28;21316;-84
2022/09/09 04:37:05;;;;;;;33.00;19.20;;;15.00;82.50;;;;;;4115687;28;20041;-83
2022/09/09 04:39:26;;;;;;;34.50;19.10;;;15.10;82.50;;;;;;4114133;28;20763;-84
2022/09/09 04:41:47;;;;;;;33.97;17.88;;;15.00;82.50;;;;;;4120014;28;20030;-83
2022/09/09 04:44:07;;;;;;;30.23;17.27;;;15.00;82.50;;;;;;4115693;28;20035;-82
2022/09/09 04:46:28;;;;;;;29.13;17.25;;;15.00;82.80;;;;;;4115756;28;20480;-83
2022/09/09 04:48:49;;;;;;;30.90;18.15;;;15.00;82.60;;;;;;4116770;28;20031;-83
2022/09/09 04:51:13;;;;;;;37.42;20.33;;;15.10;82.70;;;;;;4120096;28;20951;-83
2022/09/09 04:53:34;;;;;;;30.30;17.17;;;15.00;82.70;;;;;;4122535;28;20109;-82
2022/09/09 04:56:10;;;;;;;33.08;16.88;;;15.10;82.70;;;;;;4120666;28;20049;-83
2022/09/09 04:58:31;;;;;;;25.10;15.80;;;15.00;82.70;;;;;;4117697;28;20101;-83
2022/09/09 05:00:52;;;;;;;30.00;16.95;;;15.10;82.60;;;;;;4119717;28;20041;-83
2022/09/09 05:03:13;;;;;;;32.70;17.33;;;15.10;82.60;;;;;;4124790;28;20494;-83
2022/09/09 05:05:34;;;;;;;35.85;19.27;;;15.10;82.70;;;;;;4117583;28;20034;-83
2022/09/09 05:08:03;;;;;;;38.00;18.30;;;15.10;82.60;;;;;;4117510;28;20042;-83
2022/09/09 05:10:24;;;;;;;35.15;18.55;;;15.10;82.60;;;;;;4121993;28;20108;-83
2022/09/09 05:12:53;;;;;;;36.30;18.67;;;15.10;82.50;;;;;;4145060;28;20470;-83
2022/09/09 05:15:13;;;;;;;36.10;18.60;;;15.10;82.50;;;;;;4133266;28;20033;-84
2022/09/09 05:17:34;;;;;;;34.63;19.92;;;15.10;82.40;;;;;;4117202;28;20038;-84
2022/09/09 05:19:55;;;;;;;34.22;18.25;;;15.10;82.30;;;;;;4120663;28;20038;-84
2022/09/09 05:22:22;;;;;;;35.78;19.02;;;15.10;82.20;;;;;;4122386;28;20161;-84
2022/09/09 05:24:44;;;;;;;33.63;18.42;;;15.10;82.20;;;;;;4122473;28;20030;-84
2022/09/09 05:27:05;;;;;;;26.35;15.70;;;15.10;82.20;;;;;;4120597;28;20085;-84
2022/09/09 05:29:27;;;;;;;31.73;16.70;;;15.00;82.20;;;;;;4121063;28;20038;-85
2022/09/09 05:31:47;;;;;;;29.73;16.38;;;15.00;82.20;;;;;;4121308;28;20376;-85
2022/09/09 05:33:49;;;;;;;34.97;19.02;;;15.00;82.10;;;;;;4125008;28;20088;-83
2022/09/09 05:36:02;;;;;;;33.95;17.92;;;15.00;82.20;;;;;;4121392;28;20026;-84
2022/09/09 05:38:03;;;;;;;33.13;18.23;;;15.00;82.20;;;;;;4119143;28;20023;-84
2022/09/09 05:40:04;;;;;;;36.17;17.13;;;15.10;82.30;;;;;;4122091;28;20581;-84
2022/09/09 05:42:05;;;;;;;31.52;17.67;;;15.00;82.20;;;;;;4122071;28;20102;-84
2022/09/09 05:44:06;;;;;;;32.05;16.70;;;15.00;82.40;;;;;;4120916;28;20037;-83
2022/09/09 05:46:18;;;;;;;31.92;17.42;;;15.00;82.50;;;;;;4118587;28;20030;-83
2022/09/09 05:48:19;;;;;;;31.52;16.75;;;15.00;82.70;;;;;;4120340;28;20045;-85
2022/09/09 05:50:19;;;;;;;38.28;19.42;;;15.00;82.70;;;;;;4126089;28;20510;-84
2022/09/09 05:52:20;;;;;;;32.03;16.80;;;15.00;82.70;;;;;;4126182;28;20033;-84
2022/09/09 05:54:21;;;;;;;34.40;18.40;;;15.00;82.70;;;;;;4119798;28;20066;-84
2022/09/09 05:56:25;;;;;;;30.08;16.55;;;15.00;82.70;;;;;;4118589;28;20019;-84
2022/09/09 05:58:25;;;;;;;31.48;17.42;;;15.00;82.70;;;;;;4125281;28;20136;-83
2022/09/09 06:00:26;;;;;;;29.15;15.63;;;15.10;82.80;;;;;;4123006;28;20039;-84
2022/09/09 06:02:27;;;;;;;36.55;17.58;;;15.10;82.80;;;;;;4123308;28;20030;-84
2022/09/09 06:04:27;;;;;;;31.50;16.33;;;15.10;82.70;;;;;;4122354;28;20030;-84
2022/09/09 06:06:36;;;;;;;33.17;17.35;;;15.10;82.70;;;;;;4123175;28;20039;-83
2022/09/09 06:08:39;;;;;;;35.10;18.00;;;15.10;82.80;;;;;;4122021;28;20034;-83
2022/09/09 06:10:40;;;;;;;35.30;18.98;;;15.20;82.80;;;;;;4121855;28;20033;-83
2022/09/09 06:12:40;;;;;;;31.80;17.02;;;15.20;82.80;;;;;;4123838;28;20052;-84
2022/09/09 06:14:41;;;;;;;31.15;16.30;;;15.10;82.50;;;;;;4120683;28;20027;-84
2022/09/09 06:16:45;;;;;;;38.58;16.92;;;15.10;82.40;;;;;;4111324;28;20105;-83
2022/09/09 06:18:47;;;;;;;33.25;17.15;;;15.10;82.40;;;;;;4107090;28;20026;-84
2022/09/09 06:20:55;;;;;;;32.92;18.15;;;15.10;82.40;;;;;;4122155;28;20577;-85
2022/09/09 06:22:56;;;;;;;32.83;17.08;;;15.10;82.30;;;;;;4125498;28;20124;-84
2022/09/09 06:24:56;;;;;;;29.83;17.05;;;15.10;82.30;;;;;;4119548;28;20025;-83
2022/09/09 06:26:57;;;;;;;30.77;16.80;;;15.10;82.20;;;;;;4119604;28;20105;-83
2022/09/09 06:28:59;;;;;;;33.38;17.05;;;15.10;82.90;;;;;;4125227;28;20033;-84
2022/09/09 06:31:05;;;;;;;34.05;16.70;;;15.10;82.20;;;;;;4120481;28;20034;-83
2022/09/09 06:33:06;;;;;;;30.67;17.00;;;15.20;82.40;;;;;;4122372;28;20145;-83
2022/09/09 06:35:07;;;;;;;34.00;17.33;;;15.20;82.30;;;;;;4121797;28;20058;-83
2022/09/09 06:37:08;;;;;;;32.47;17.10;;;15.20;82.30;;;;;;4120127;28;20667;-83
2022/09/09 06:39:10;;;;;;;33.67;18.02;;;15.20;82.30;;;;;;4121891;28;20065;-83
2022/09/09 06:41:13;;;;;;;39.30;18.40;;;15.20;82.10;;;;;;4122159;28;20054;-84
2022/09/09 06:43:14;;;;;;;32.70;17.00;;;15.20;82.10;;;;;;4123272;28;20053;-84
2022/09/09 06:45:14;;;;;;;34.60;17.35;;;15.20;82.00;;;;;;4123548;28;20050;-84
2022/09/09 06:47:15;;;;;;;28.70;15.80;;;15.20;82.10;;;;;;4125961;28;20022;-84
2022/09/09 06:49:16;;;;;;;30.67;14.90;;;15.20;82.10;;;;;;4121413;28;20050;-84
2022/09/09 06:51:21;;;;;;;31.00;15.35;;;15.20;82.90;;;;;;4119377;28;20069;-83
2022/09/09 06:53:22;;;;;;;30.60;16.25;;;15.20;82.10;;;;;;4122623;28;20045;-85
2022/09/09 06:55:23;;;;;;;31.77;16.60;;;15.20;82.10;;;;;;4118864;28;20053;-83
2022/09/09 06:57:24;;;;;;;30.48;16.42;;;15.20;82.10;;;;;;4122013;28;20678;-83
2022/09/09 06:59:24;;;;;;;30.88;16.98;;;15.20;82.20;;;;;;4123944;28;20114;-84
2022/09/09 07:01:28;;;;;;;32.40;17.25;;;15.20;82.10;;;;;;4124658;28;20040;-84
2022/09/09 07:03:29;;;;;;;32.97;17.55;;;15.30;82.20;;;;;;4122049;28;20081;-84
2022/09/09 07:05:29;;;;;;;30.73;16.80;;;15.30;82.10;;;;;;4120176;28;20125;-84
2022/09/09 07:07:30;;;;;;;28.48;15.63;;;15.30;81.90;;;;;;4120075;28;20390;-84
2022/09/09 07:09:31;;;;;;;29.02;15.90;;;15.30;81.90;;;;;;4122312;28;20038;-84
2022/09/09 07:11:37;;;;;;;28.50;15.95;;;15.30;81.80;;;;;;4120594;28;20038;-83
2022/09/09 07:13:37;;;;;;;30.20;16.05;;;15.30;81.80;;;;;;4119885;28;20031;-84
2022/09/09 07:15:38;;;;;;;34.28;16.90;;;15.30;81.80;;;;;;4117975;28;20081;-84
2022/09/09 07:17:39;;;;;;;34.40;16.67;;;15.40;81.70;;;;;;4120262;28;20026;-84
2022/09/09 07:19:40;;;;;;;29.77;16.55;;;15.30;81.60;;;;;;4122357;28;20030;-85
2022/09/09 07:21:40;;;;;;;30.75;17.20;;;15.30;81.50;;;;;;4123601;28;20019;-84
2022/09/09 07:23:41;;;;;;;33.97;18.30;;;15.30;81.50;;;;;;4104663;28;20034;-84
2022/09/09 07:25:45;;;;;;;30.50;15.73;;;15.30;81.50;;;;;;4119854;28;20117;-84
2022/09/09 07:27:46;;;;;;;32.08;17.23;;;15.40;81.60;;;;;;4119544;28;20035;-84
2022/09/09 07:29:46;;;;;;;32.55;17.88;;;15.40;81.60;;;;;;4121331;28;20141;-84
2022/09/09 07:31:48;;;;;;;34.45;18.23;;;15.40;81.60;;;;;;4119358;28;20031;-85
2022/09/09 07:33:48;;;;;;;34.60;19.05;;;15.40;81.60;;;;;;4118419;28;20033;-85
2022/09/09 07:35:49;;;;;;;30.58;16.90;;;15.40;81.60;;;;;;4117979;28;20507;-84
2022/09/09 07:37:50;;;;;;;34.25;18.25;;;15.40;81.70;;;;;;4119658;28;20029;-85
2022/09/09 07:39:51;;;;;;;31.73;16.17;;;15.50;81.80;;;;;;4137936;28;20509;-88
2022/09/09 07:41:53;;;;;;;30.30;18.05;;;15.50;81.70;;;;;;4121510;28;20097;-84
2022/09/09 07:43:55;;;;;;;35.92;18.85;;;15.50;81.70;;;;;;4121365;28;21744;-84
2022/09/09 07:46:01;;;;;;;34.38;19.75;;;15.50;81.60;;;;;;4122170;28;20027;-83
2022/09/09 07:48:02;;;;;;;43.20;21.15;;;15.50;81.60;;;;;;4115871;28;20251;-83
2022/09/09 07:50:03;;;;;;;38.80;21.50;;;15.50;81.60;;;;;;4110463;28;20081;-84
2022/09/09 07:52:04;;;;;;;37.13;21.40;;;15.60;81.60;;;;;;4123879;28;20109;-84
2022/09/09 07:54:09;;;;;;;40.97;22.02;;;15.50;81.50;;;;;;4121378;28;20077;-83
2022/09/09 07:56:12;;;;;;;35.03;20.77;;;15.70;81.70;;;;;;4117676;28;20077;-83
2022/09/09 07:58:13;;;;;;;41.75;22.00;;;15.60;81.70;;;;;;4118408;28;20031;-83
2022/09/09 08:00:14;;;;;;;37.65;21.00;;;15.70;81.90;;;;;;4123446;28;20057;-83
2022/09/09 08:02:15;;;;;;;35.13;19.65;;;15.70;81.80;;;;;;4122689;28;20125;-84
2022/09/09 08:04:18;;;;;;;35.67;19.85;;;15.70;81.60;;;;;;4118187;28;20613;-83
2022/09/09 08:06:19;;;;;;;33.28;19.15;;;15.70;81.60;;;;;;4119289;28;20030;-84
2022/09/09 08:08:19;;;;;;;29.70;18.25;;;15.80;81.40;;;;;;4118025;28;20383;-83
2022/09/09 08:10:20;;;;;;;29.55;17.50;;;15.80;81.20;;;;;;4121667;28;20049;-84
2022/09/09 08:12:21;;;;;;;25.90;17.02;;;15.80;81.10;;;;;;4126724;28;20038;-85
2022/09/09 08:14:22;;;;;;;31.33;17.70;;;15.80;81.00;;;;;;4128122;28;20588;-85
2022/09/09 08:16:26;;;;;;;25.23;16.30;;;15.90;80.90;;;;;;4119315;28;20035;-85
2022/09/09 08:18:27;;;;;;;26.17;17.48;;;15.90;80.90;;;;;;4124784;28;20034;-84
2022/09/09 08:20:28;;;;;;;33.40;18.85;;;15.90;80.80;;;;;;4121087;28;20078;-85
2022/09/09 08:22:29;;;;;;;24.58;16.33;;;15.90;80.70;;;;;;4104594;28;20538;-85
2022/09/09 08:24:29;;;;;;;27.15;16.58;;;16.00;80.50;;;;;;4117255;28;20214;-85
2022/09/09 08:26:42;;;;;;;24.67;15.75;;;16.00;80.40;;;;;;4125830;28;20041;-85
2022/09/09 08:28:43;;;;;;;26.55;16.17;;;16.00;80.20;;;;;;4125676;28;20143;-86
2022/09/09 08:30:44;;;;;;;25.83;16.40;;;16.00;80.10;;;;;;4118596;28;20027;-85
2022/09/09 08:32:45;;;;;;;25.70;16.50;;;16.10;80.00;;;;;;4117493;28;20410;-86
2022/09/09 08:34:46;;;;;;;25.08;16.10;;;16.10;80.00;;;;;;4124296;28;20619;-86
2022/09/09 08:36:48;;;;;;;25.65;16.17;;;16.10;80.00;;;;;;4124772;28;20037;-87
2022/09/09 08:38:51;;;;;;;29.13;16.83;;;16.10;80.00;;;;;;4123003;28;20038;-86
2022/09/09 08:41:00;;;;;;;26.02;16.38;;;16.10;80.00;;;;;;4126357;28;20296;-87
2022/09/09 08:43:04;;;;;;;31.88;18.45;;;16.20;80.00;;;;;;4120589;28;20030;-86
2022/09/09 08:45:24;;;;;;;;;;;16.20;79.80;;;;;;4119595;28;20038;-86
2022/09/09 08:47:39;;;;;;;25.50;15.70;;;16.30;79.40;;;;;;4136544;28;19913;-84
2022/09/09 08:50:17;;;;;;;31.08;17.67;;;16.30;79.40;;;;;;4123058;28;20031;-83
2022/09/09 08:52:24;;;;;;;28.33;16.10;;;16.30;79.00;;;;;;4124718;28;20673;-83
2022/09/09 08:54:31;;;;;;;27.27;15.80;;;16.40;79.10;;;;;;4124594;28;20033;-86
2022/09/09 08:56:33;;;;;;;28.15;17.23;;;16.40;79.10;;;;;;4118215;28;20096;-86
2022/09/09 08:58:40;;;;;;;28.55;16.88;;;16.40;79.00;;;;;;4117704;28;20027;-86
2022/09/09 09:01:04;;;;;;;28.52;16.08;;;16.40;78.80;;;;;;4125384;28;20077;-86
2022/09/09 09:03:43;;;;;;;28.85;15.13;;;16.50;78.70;;;;;;4113257;28;20035;-85
2022/09/09 09:06:23;;;;;;;30.30;15.32;;;16.50;78.60;;;;;;4112409;28;20066;-85
2022/09/09 09:08:51;;;;;;;30.17;16.25;;;16.50;78.40;;;;;;4131756;28;20098;-85
2022/09/09 09:10:56;;;;;;;26.88;14.98;;;16.60;78.50;;;;;;4124222;28;20025;-81
2022/09/09 09:12:58;;;;;;;34.28;17.25;;;16.60;78.50;;;;;;4125036;28;20022;-82
2022/09/09 09:14:59;;;;;;;26.42;16.02;;;16.60;78.20;;;;;;4126090;28;20053;-83
2022/09/09 09:17:19;;;;;;;32.38;16.30;;;16.60;78.00;;;;;;4122417;28;20195;-85
2022/09/09 09:19:22;;;;;;;32.55;17.25;;;16.60;78.00;;;;;;4126855;28;20050;-83
2022/09/09 09:21:36;;;;;;;30.58;17.02;;;16.60;78.00;;;;;;4126339;28;20453;-84
2022/09/09 09:24:01;;;;;;;37.38;19.48;;;16.60;78.00;;;;;;4109181;28;20042;-85
2022/09/09 09:26:08;;;;;;;32.88;17.70;;;16.70;77.90;;;;;;4125336;28;20046;-84
2022/09/09 09:28:21;;;;;;;33.67;19.02;;;16.70;78.00;;;;;;4125898;28;20608;-85
2022/09/09 09:30:25;;;;;;;29.90;17.53;;;16.80;78.20;;;;;;4125209;28;20123;-82
2022/09/09 09:32:31;;;;;;;32.35;17.67;;;16.80;78.30;;;;;;4125238;28;20015;-84
2022/09/09 09:34:31;;;;;;;32.17;17.83;;;16.80;78.40;;;;;;4126432;28;20038;-86
2022/09/09 09:36:44;;;;;;;32.25;17.80;;;16.90;78.60;;;;;;4125708;28;20069;-83
2022/09/09 09:38:55;;;;;;;28.35;16.38;;;17.00;78.70;;;;;;4122115;28;20027;-85
2022/09/09 09:40:57;;;;;;;30.92;17.98;;;17.00;78.40;;;;;;4122930;28;20827;-83
2022/09/09 09:43:00;;;;;;;32.65;16.65;;;17.10;78.50;;;;;;4105257;28;20498;-83
2022/09/09 09:45:35;;;;;;;25.67;15.85;;;17.10;78.30;;;;;;4122687;28;20026;-82
2022/09/09 09:47:36;;;;;;;28.65;15.98;;;17.20;78.20;;;;;;4119935;28;20534;-83
2022/09/09 09:49:36;;;;;;;27.85;15.95;;;17.30;78.60;;;;;;4122271;28;20026;-83
2022/09/09 09:51:37;;;;;;;25.63;15.70;;;17.40;78.90;;;;;;4127149;28;20057;-83
2022/09/09 09:53:38;;;;;;;30.05;16.02;;;17.40;78.80;;;;;;4124339;28;20038;-83
2022/09/09 09:55:57;;;;;;;26.92;16.05;;;17.60;79.20;;;;;;4124024;28;20892;-83
2022/09/09 09:58:03;;;;;;;26.55;16.15;;;17.70;79.10;;;;;;4123894;28;20030;-81
2022/09/09 10:00:17;;;;;;;25.70;16.02;;;17.80;78.70;;;;;;4124581;28;20113;-83
2022/09/09 10:02:26;;;;;;;24.95;15.18;;;17.90;78.00;;;;;;4123527;28;20061;-83
2022/09/09 10:04:27;;;;;;;22.80;13.77;;;18.00;77.60;;;;;;4122956;28;20517;-84
2022/09/09 10:06:37;;;;;;;20.95;13.52;;;18.10;77.30;;;;;;4124506;28;20042;-84
2022/09/09 10:08:46;;;;;;;27.17;13.93;;;18.20;76.60;;;;;;4124364;28;20401;-84
2022/09/09 10:11:43;;;;;;;23.40;13.95;;;18.30;75.80;;;;;;4122877;28;20506;-83
2022/09/09 10:14:03;;;;;;;26.20;14.32;;;18.30;75.00;;;;;;4091510;28;20447;-83
2022/09/09 10:16:09;;;;;;;30.80;16.60;;;18.40;74.70;;;;;;4079054;29;20124;-83
2022/09/09 10:18:35;;;;;;;26.05;15.30;;;18.40;73.80;;;;;;4096026;28;20520;-84
2022/09/09 10:20:38;;;;;;;25.08;14.02;;;18.50;73.00;;;;;;4124594;28;20039;-84
2022/09/09 10:22:47;;;;;;;27.77;12.98;;;18.50;73.30;;;;;;4125218;28;20507;-84
2022/09/09 10:24:53;;;;;;;18.60;12.32;;;18.60;73.60;;;;;;4123401;28;20109;-84
2022/09/09 10:27:18;;;;;;;20.95;12.30;;;18.60;73.60;;;;;;4123057;28;20034;-83
2022/09/09 10:29:44;;;;;;;20.48;12.63;;;18.70;72.90;;;;;;4123178;28;20069;-83
2022/09/09 10:32:03;;;;;;;26.52;12.13;;;18.80;72.90;;;;;;4123028;28;20072;-84
2022/09/09 10:34:27;;;;;;;21.25;12.00;;;18.80;71.40;;;;;;4123963;28;20507;-83
2022/09/09 10:36:28;;;;;;;;;;;18.90;71.60;;;;;;4104259;28;20039;-83
2022/09/09 10:38:39;;;;;;;19.67;11.43;;;18.90;71.60;;;;;;4122629;28;20009;-84
2022/09/09 10:40:57;;;;;;;18.73;11.80;;;18.90;72.10;;;;;;4120377;28;20578;-83
2022/09/09 10:43:28;;;;;;;23.17;13.43;;;19.00;71.90;;;;;;4125193;28;20027;-83
2022/09/09 10:45:55;;;;;;;20.40;11.85;;;19.00;71.10;;;;;;4123791;28;20625;-83
2022/09/09 10:48:31;;;;;;;16.60;10.98;;;19.10;71.00;;;;;;4128730;28;20118;-84
2022/09/09 10:50:52;;;;;;;16.92;11.32;;;19.10;70.60;;;;;;4124278;28;20110;-83
2022/09/09 10:53:17;;;;;;;17.50;12.30;;;19.20;71.10;;;;;;4126858;28;21497;-83